sensor_id;sensor_type;location;lat;lon;timestamp;P1;durP1;ratioP1;P2;durP2;ratioP2
66270;SDS011;53063;39.614;8.814;2024-03-02T00:00:09;12.02;;;1.42;;
66270;SDS011;53063;39.614;8.814;2024-03-02T00:02:40;4.05;;;1.27;;
66270;SDS011;53063;39.614;8.814;2024-03-02T00:05:06;6.25;;;1.73;;
66270;SDS011;53063;39.614;8.814;2024-03-02T00:07:32;7.20;;;1.60;;
66270;SDS011;53063;39.614;8.814;2024-03-02T00:09:59;5.25;;;1.30;;
66270;SDS011;53063;39.614;8.814;2024-03-02T00:12:25;10.45;;;1.60;;
66270;SDS011;53063;39.614;8.814;2024-03-02T00:14:51;5.55;;;0.98;;
66270;SDS011;53063;39.614;8.814;2024-03-02T00:17:17;5.57;;;1.48;;
66270;SDS011;53063;39.614;8.814;2024-03-02T00:19:53;7.03;;;0.88;;
66270;SDS011;53063;39.614;8.814;2024-03-02T00:22:19;6.00;;;1.73;;
66270;SDS011;53063;39.614;8.814;2024-03-02T00:24:45;7.97;;;1.30;;
66270;SDS011;53063;39.614;8.814;2024-03-02T00:27:12;8.50;;;1.27;;
66270;SDS011;53063;39.614;8.814;2024-03-02T00:29:40;3.33;;;1.00;;
66270;SDS011;53063;39.614;8.814;2024-03-02T00:32:14;6.43;;;1.80;;
66270;SDS011;53063;39.614;8.814;2024-03-02T00:34:42;4.82;;;1.67;;
66270;SDS011;53063;39.614;8.814;2024-03-02T00:37:08;9.60;;;1.50;;
66270;SDS011;53063;39.614;8.814;2024-03-02T00:39:34;7.22;;;1.50;;
66270;SDS011;53063;39.614;8.814;2024-03-02T00:42:01;4.28;;;0.93;;
66270;SDS011;53063;39.614;8.814;2024-03-02T00:44:26;6.32;;;0.88;;
66270;SDS011;53063;39.614;8.814;2024-03-02T00:46:55;7.30;;;1.33;;
66270;SDS011;53063;39.614;8.814;2024-03-02T00:49:24;5.10;;;1.48;;
66270;SDS011;53063;39.614;8.814;2024-03-02T00:51:52;3.95;;;1.20;;
66270;SDS011;53063;39.614;8.814;2024-03-02T00:54:19;10.20;;;1.58;;
66270;SDS011;53063;39.614;8.814;2024-03-02T00:56:48;8.40;;;1.80;;
66270;SDS011;53063;39.614;8.814;2024-03-02T00:59:14;8.55;;;1.52;;
66270;SDS011;53063;39.614;8.814;2024-03-02T01:01:40;4.50;;;0.88;;
66270;SDS011;53063;39.614;8.814;2024-03-02T01:04:07;12.30;;;1.65;;
66270;SDS011;53063;39.614;8.814;2024-03-02T01:06:34;5.50;;;1.95;;
66270;SDS011;53063;39.614;8.814;2024-03-02T01:09:00;5.72;;;0.98;;
66270;SDS011;53063;39.614;8.814;2024-03-02T01:11:26;4.85;;;0.85;;
66270;SDS011;53063;39.614;8.814;2024-03-02T01:13:52;6.47;;;0.82;;
66270;SDS011;53063;39.614;8.814;2024-03-02T01:16:18;10.80;;;1.08;;
66270;SDS011;53063;39.614;8.814;2024-03-02T01:18:44;8.25;;;1.10;;
66270;SDS011;53063;39.614;8.814;2024-03-02T01:21:10;9.40;;;1.27;;
66270;SDS011;53063;39.614;8.814;2024-03-02T01:23:36;6.18;;;1.05;;
66270;SDS011;53063;39.614;8.814;2024-03-02T01:26:03;4.72;;;0.85;;
66270;SDS011;53063;39.614;8.814;2024-03-02T01:28:28;4.78;;;0.85;;
66270;SDS011;53063;39.614;8.814;2024-03-02T01:30:54;9.07;;;1.45;;
66270;SDS011;53063;39.614;8.814;2024-03-02T01:33:20;6.70;;;0.98;;
66270;SDS011;53063;39.614;8.814;2024-03-02T01:35:46;5.35;;;1.15;;
66270;SDS011;53063;39.614;8.814;2024-03-02T01:38:12;6.57;;;0.90;;
66270;SDS011;53063;39.614;8.814;2024-03-02T01:40:38;5.30;;;1.38;;
66270;SDS011;53063;39.614;8.814;2024-03-02T01:43:05;8.07;;;1.40;;
66270;SDS011;53063;39.614;8.814;2024-03-02T01:45:31;7.60;;;1.73;;
66270;SDS011;53063;39.614;8.814;2024-03-02T01:47:58;9.35;;;1.02;;
66270;SDS011;53063;39.614;8.814;2024-03-02T01:50:33;6.03;;;1.00;;
66270;SDS011;53063;39.614;8.814;2024-03-02T01:53:00;6.53;;;1.27;;
66270;SDS011;53063;39.614;8.814;2024-03-02T01:55:28;4.82;;;0.80;;
66270;SDS011;53063;39.614;8.814;2024-03-02T01:57:55;6.78;;;2.03;;
66270;SDS011;53063;39.614;8.814;2024-03-02T02:00:21;9.30;;;1.10;;
66270;SDS011;53063;39.614;8.814;2024-03-02T02:02:50;5.03;;;1.13;;
66270;SDS011;53063;39.614;8.814;2024-03-02T02:05:16;9.93;;;1.45;;
66270;SDS011;53063;39.614;8.814;2024-03-02T02:07:42;10.18;;;1.40;;
66270;SDS011;53063;39.614;8.814;2024-03-02T02:10:09;5.60;;;1.27;;
66270;SDS011;53063;39.614;8.814;2024-03-02T02:12:36;3.60;;;0.90;;
66270;SDS011;53063;39.614;8.814;2024-03-02T02:15:03;8.52;;;1.55;;
66270;SDS011;53063;39.614;8.814;2024-03-02T02:17:30;14.52;;;1.42;;
66270;SDS011;53063;39.614;8.814;2024-03-02T02:19:56;6.63;;;1.42;;
66270;SDS011;53063;39.614;8.814;2024-03-02T02:22:22;9.63;;;1.27;;
66270;SDS011;53063;39.614;8.814;2024-03-02T02:24:48;7.03;;;1.48;;
66270;SDS011;53063;39.614;8.814;2024-03-02T02:27:14;6.97;;;1.25;;
66270;SDS011;53063;39.614;8.814;2024-03-02T02:29:40;5.82;;;1.15;;
66270;SDS011;53063;39.614;8.814;2024-03-02T02:32:07;7.10;;;1.65;;
66270;SDS011;53063;39.614;8.814;2024-03-02T02:34:33;6.88;;;0.80;;
66270;SDS011;53063;39.614;8.814;2024-03-02T02:36:59;4.63;;;1.42;;
66270;SDS011;53063;39.614;8.814;2024-03-02T02:39:25;4.75;;;1.00;;
66270;SDS011;53063;39.614;8.814;2024-03-02T02:41:50;7.63;;;1.30;;
66270;SDS011;53063;39.614;8.814;2024-03-02T02:44:16;3.42;;;1.00;;
66270;SDS011;53063;39.614;8.814;2024-03-02T02:46:42;6.15;;;1.15;;
66270;SDS011;53063;39.614;8.814;2024-03-02T02:49:08;10.73;;;1.60;;
66270;SDS011;53063;39.614;8.814;2024-03-02T02:51:34;5.97;;;1.15;;
66270;SDS011;53063;39.614;8.814;2024-03-02T02:54:00;12.88;;;1.80;;
66270;SDS011;53063;39.614;8.814;2024-03-02T02:56:26;12.00;;;1.70;;
66270;SDS011;53063;39.614;8.814;2024-03-02T02:58:51;7.47;;;1.15;;
66270;SDS011;53063;39.614;8.814;2024-03-02T03:01:17;5.22;;;1.30;;
66270;SDS011;53063;39.614;8.814;2024-03-02T03:03:44;5.90;;;1.20;;
66270;SDS011;53063;39.614;8.814;2024-03-02T03:06:11;7.40;;;1.17;;
66270;SDS011;53063;39.614;8.814;2024-03-02T03:08:37;10.43;;;1.10;;
66270;SDS011;53063;39.614;8.814;2024-03-02T03:11:03;4.05;;;0.98;;
66270;SDS011;53063;39.614;8.814;2024-03-02T03:13:30;8.80;;;1.38;;
66270;SDS011;53063;39.614;8.814;2024-03-02T03:15:57;6.97;;;1.20;;
66270;SDS011;53063;39.614;8.814;2024-03-02T03:18:23;5.65;;;1.30;;
66270;SDS011;53063;39.614;8.814;2024-03-02T03:20:49;8.23;;;1.65;;
66270;SDS011;53063;39.614;8.814;2024-03-02T03:23:15;13.30;;;1.80;;
66270;SDS011;53063;39.614;8.814;2024-03-02T03:25:42;2.65;;;0.98;;
66270;SDS011;53063;39.614;8.814;2024-03-02T03:28:09;11.07;;;1.10;;
66270;SDS011;53063;39.614;8.814;2024-03-02T03:30:38;5.05;;;0.50;;
66270;SDS011;53063;39.614;8.814;2024-03-02T03:33:04;6.32;;;0.95;;
66270;SDS011;53063;39.614;8.814;2024-03-02T03:35:34;2.95;;;0.75;;
66270;SDS011;53063;39.614;8.814;2024-03-02T03:38:00;4.28;;;0.57;;
66270;SDS011;53063;39.614;8.814;2024-03-02T03:40:26;5.03;;;1.17;;
66270;SDS011;53063;39.614;8.814;2024-03-02T03:42:52;3.70;;;0.88;;
66270;SDS011;53063;39.614;8.814;2024-03-02T03:45:18;12.40;;;1.00;;
66270;SDS011;53063;39.614;8.814;2024-03-02T03:47:44;3.58;;;0.70;;
66270;SDS011;53063;39.614;8.814;2024-03-02T03:50:10;6.75;;;0.95;;
66270;SDS011;53063;39.614;8.814;2024-03-02T03:52:36;4.65;;;0.75;;
66270;SDS011;53063;39.614;8.814;2024-03-02T03:55:02;2.20;;;1.00;;
66270;SDS011;53063;39.614;8.814;2024-03-02T03:57:28;3.28;;;0.90;;
66270;SDS011;53063;39.614;8.814;2024-03-02T03:59:53;6.72;;;0.73;;
66270;SDS011;53063;39.614;8.814;2024-03-02T04:02:19;2.35;;;0.80;;
66270;SDS011;53063;39.614;8.814;2024-03-02T04:04:45;4.18;;;0.68;;
66270;SDS011;53063;39.614;8.814;2024-03-02T04:07:11;6.80;;;1.17;;
66270;SDS011;53063;39.614;8.814;2024-03-02T04:09:37;4.45;;;0.60;;
66270;SDS011;53063;39.614;8.814;2024-03-02T04:12:03;3.17;;;0.73;;
66270;SDS011;53063;39.614;8.814;2024-03-02T04:14:29;2.30;;;0.60;;
66270;SDS011;53063;39.614;8.814;2024-03-02T04:16:55;8.05;;;1.13;;
66270;SDS011;53063;39.614;8.814;2024-03-02T04:19:21;6.10;;;1.08;;
66270;SDS011;53063;39.614;8.814;2024-03-02T04:21:47;2.95;;;0.70;;
66270;SDS011;53063;39.614;8.814;2024-03-02T04:24:12;2.50;;;0.75;;
66270;SDS011;53063;39.614;8.814;2024-03-02T04:26:38;6.00;;;1.95;;
66270;SDS011;53063;39.614;8.814;2024-03-02T04:29:04;4.43;;;1.10;;
66270;SDS011;53063;39.614;8.814;2024-03-02T04:31:30;6.80;;;0.93;;
66270;SDS011;53063;39.614;8.814;2024-03-02T04:33:56;5.93;;;1.05;;
66270;SDS011;53063;39.614;8.814;2024-03-02T04:36:22;12.45;;;0.80;;
66270;SDS011;53063;39.614;8.814;2024-03-02T04:38:48;8.18;;;1.08;;
66270;SDS011;53063;39.614;8.814;2024-03-02T04:41:14;4.93;;;0.93;;
66270;SDS011;53063;39.614;8.814;2024-03-02T04:43:40;3.45;;;1.00;;
66270;SDS011;53063;39.614;8.814;2024-03-02T04:46:06;1.63;;;1.00;;
66270;SDS011;53063;39.614;8.814;2024-03-02T04:48:32;9.07;;;1.00;;
66270;SDS011;53063;39.614;8.814;2024-03-02T04:50:59;4.70;;;1.20;;
66270;SDS011;53063;39.614;8.814;2024-03-02T04:53:25;9.45;;;0.95;;
66270;SDS011;53063;39.614;8.814;2024-03-02T04:55:51;7.28;;;1.10;;
66270;SDS011;53063;39.614;8.814;2024-03-02T04:58:43;4.90;;;0.85;;
66270;SDS011;53063;39.614;8.814;2024-03-02T05:01:09;2.50;;;1.00;;
66270;SDS011;53063;39.614;8.814;2024-03-02T05:03:35;4.55;;;0.82;;
66270;SDS011;53063;39.614;8.814;2024-03-02T05:06:01;4.63;;;1.13;;
66270;SDS011;53063;39.614;8.814;2024-03-02T05:08:27;4.22;;;0.55;;
66270;SDS011;53063;39.614;8.814;2024-03-02T05:10:53;5.75;;;1.27;;
66270;SDS011;53063;39.614;8.814;2024-03-02T05:13:19;3.25;;;0.65;;
66270;SDS011;53063;39.614;8.814;2024-03-02T05:15:46;1.52;;;0.63;;
66270;SDS011;53063;39.614;8.814;2024-03-02T05:18:12;6.03;;;1.02;;
66270;SDS011;53063;39.614;8.814;2024-03-02T05:20:37;2.53;;;0.70;;
66270;SDS011;53063;39.614;8.814;2024-03-02T05:23:03;3.53;;;1.63;;
66270;SDS011;53063;39.614;8.814;2024-03-02T05:25:29;5.60;;;1.00;;
66270;SDS011;53063;39.614;8.814;2024-03-02T05:27:55;1.60;;;0.60;;
66270;SDS011;53063;39.614;8.814;2024-03-02T05:30:21;1.27;;;0.50;;
66270;SDS011;53063;39.614;8.814;2024-03-02T05:32:47;5.95;;;0.80;;
66270;SDS011;53063;39.614;8.814;2024-03-02T05:35:13;4.25;;;0.85;;
66270;SDS011;53063;39.614;8.814;2024-03-02T05:37:39;7.85;;;1.00;;
66270;SDS011;53063;39.614;8.814;2024-03-02T05:40:05;4.07;;;0.90;;
66270;SDS011;53063;39.614;8.814;2024-03-02T05:42:31;4.35;;;0.98;;
66270;SDS011;53063;39.614;8.814;2024-03-02T05:44:57;4.03;;;0.95;;
66270;SDS011;53063;39.614;8.814;2024-03-02T05:47:23;7.57;;;1.55;;
66270;SDS011;53063;39.614;8.814;2024-03-02T05:49:49;1.38;;;0.82;;
66270;SDS011;53063;39.614;8.814;2024-03-02T05:52:15;6.55;;;1.52;;
66270;SDS011;53063;39.614;8.814;2024-03-02T05:54:41;7.45;;;2.00;;
66270;SDS011;53063;39.614;8.814;2024-03-02T05:57:07;4.50;;;2.70;;
66270;SDS011;53063;39.614;8.814;2024-03-02T06:00:01;7.63;;;3.13;;
66270;SDS011;53063;39.614;8.814;2024-03-02T06:02:40;9.45;;;2.50;;
66270;SDS011;53063;39.614;8.814;2024-03-02T06:05:06;3.78;;;1.52;;
66270;SDS011;53063;39.614;8.814;2024-03-02T06:07:32;5.47;;;1.23;;
66270;SDS011;53063;39.614;8.814;2024-03-02T06:09:58;7.07;;;1.08;;
66270;SDS011;53063;39.614;8.814;2024-03-02T06:12:24;3.67;;;1.00;;
66270;SDS011;53063;39.614;8.814;2024-03-02T06:14:50;8.48;;;1.08;;
66270;SDS011;53063;39.614;8.814;2024-03-02T06:17:16;6.93;;;1.23;;
66270;SDS011;53063;39.614;8.814;2024-03-02T06:19:42;5.00;;;1.38;;
66270;SDS011;53063;39.614;8.814;2024-03-02T06:22:07;7.95;;;1.95;;
66270;SDS011;53063;39.614;8.814;2024-03-02T06:24:36;6.78;;;3.17;;
66270;SDS011;53063;39.614;8.814;2024-03-02T06:27:03;7.78;;;2.95;;
66270;SDS011;53063;39.614;8.814;2024-03-02T06:29:32;7.50;;;2.33;;
66270;SDS011;53063;39.614;8.814;2024-03-02T06:31:59;9.25;;;2.47;;
66270;SDS011;53063;39.614;8.814;2024-03-02T06:34:25;6.22;;;1.63;;
66270;SDS011;53063;39.614;8.814;2024-03-02T06:36:51;9.68;;;2.05;;
66270;SDS011;53063;39.614;8.814;2024-03-02T06:39:17;8.18;;;1.58;;
66270;SDS011;53063;39.614;8.814;2024-03-02T06:41:42;10.20;;;2.78;;
66270;SDS011;53063;39.614;8.814;2024-03-02T06:44:08;12.00;;;6.47;;
66270;SDS011;53063;39.614;8.814;2024-03-02T06:46:34;9.65;;;4.90;;
66270;SDS011;53063;39.614;8.814;2024-03-02T06:49:00;5.22;;;3.42;;
66270;SDS011;53063;39.614;8.814;2024-03-02T06:51:27;14.75;;;8.13;;
66270;SDS011;53063;39.614;8.814;2024-03-02T06:53:53;9.80;;;4.43;;
66270;SDS011;53063;39.614;8.814;2024-03-02T06:56:19;17.20;;;8.10;;
66270;SDS011;53063;39.614;8.814;2024-03-02T06:58:45;16.10;;;6.93;;
66270;SDS011;53063;39.614;8.814;2024-03-02T07:01:11;13.75;;;6.93;;
66270;SDS011;53063;39.614;8.814;2024-03-02T07:03:36;12.57;;;5.93;;
66270;SDS011;53063;39.614;8.814;2024-03-02T07:06:04;4.93;;;2.50;;
66270;SDS011;53063;39.614;8.814;2024-03-02T07:08:30;11.55;;;4.40;;
66270;SDS011;53063;39.614;8.814;2024-03-02T07:10:56;18.85;;;6.80;;
66270;SDS011;53063;39.614;8.814;2024-03-02T07:13:22;24.98;;;8.43;;
66270;SDS011;53063;39.614;8.814;2024-03-02T07:15:48;13.15;;;6.60;;
66270;SDS011;53063;39.614;8.814;2024-03-02T07:18:32;21.02;;;6.90;;
66270;SDS011;53063;39.614;8.814;2024-03-02T07:21:06;21.55;;;7.40;;
66270;SDS011;53063;39.614;8.814;2024-03-02T07:23:32;12.50;;;5.35;;
66270;SDS011;53063;39.614;8.814;2024-03-02T07:25:59;19.23;;;6.47;;
66270;SDS011;53063;39.614;8.814;2024-03-02T07:28:27;67.03;;;39.53;;
66270;SDS011;53063;39.614;8.814;2024-03-02T07:30:59;60.92;;;37.15;;
66270;SDS011;53063;39.614;8.814;2024-03-02T07:33:32;14.73;;;7.65;;
66270;SDS011;53063;39.614;8.814;2024-03-02T07:35:59;12.30;;;5.55;;
66270;SDS011;53063;39.614;8.814;2024-03-02T07:38:26;11.25;;;5.03;;
66270;SDS011;53063;39.614;8.814;2024-03-02T07:40:53;32.33;;;16.58;;
66270;SDS011;53063;39.614;8.814;2024-03-02T07:43:19;16.05;;;6.68;;
66270;SDS011;53063;39.614;8.814;2024-03-02T07:45:45;29.05;;;7.32;;
66270;SDS011;53063;39.614;8.814;2024-03-02T07:48:12;25.25;;;10.07;;
66270;SDS011;53063;39.614;8.814;2024-03-02T07:50:38;62.47;;;27.73;;
66270;SDS011;53063;39.614;8.814;2024-03-02T07:53:04;41.65;;;21.45;;
66270;SDS011;53063;39.614;8.814;2024-03-02T07:55:31;29.30;;;14.45;;
66270;SDS011;53063;39.614;8.814;2024-03-02T07:57:57;14.60;;;7.35;;
66270;SDS011;53063;39.614;8.814;2024-03-02T08:00:23;15.88;;;6.13;;
66270;SDS011;53063;39.614;8.814;2024-03-02T08:02:51;19.67;;;10.57;;
66270;SDS011;53063;39.614;8.814;2024-03-02T08:05:17;12.85;;;6.25;;
66270;SDS011;53063;39.614;8.814;2024-03-02T08:07:46;9.10;;;5.07;;
66270;SDS011;53063;39.614;8.814;2024-03-02T08:10:13;5.47;;;2.90;;
66270;SDS011;53063;39.614;8.814;2024-03-02T08:12:39;16.30;;;4.72;;
66270;SDS011;53063;39.614;8.814;2024-03-02T08:15:05;9.50;;;3.45;;
66270;SDS011;53063;39.614;8.814;2024-03-02T08:17:31;7.82;;;2.45;;
66270;SDS011;53063;39.614;8.814;2024-03-02T08:19:57;5.80;;;1.73;;
66270;SDS011;53063;39.614;8.814;2024-03-02T08:22:23;4.05;;;1.20;;
66270;SDS011;53063;39.614;8.814;2024-03-02T08:24:52;7.25;;;1.40;;
66270;SDS011;53063;39.614;8.814;2024-03-02T08:27:20;6.70;;;2.38;;
66270;SDS011;53063;39.614;8.814;2024-03-02T08:29:46;7.38;;;2.10;;
66270;SDS011;53063;39.614;8.814;2024-03-02T08:32:11;2.85;;;0.82;;
66270;SDS011;53063;39.614;8.814;2024-03-02T08:34:37;7.05;;;1.20;;
66270;SDS011;53063;39.614;8.814;2024-03-02T08:37:03;5.32;;;1.10;;
66270;SDS011;53063;39.614;8.814;2024-03-02T08:39:30;2.30;;;0.90;;
66270;SDS011;53063;39.614;8.814;2024-03-02T08:41:56;4.18;;;0.88;;
66270;SDS011;53063;39.614;8.814;2024-03-02T08:44:22;4.45;;;1.23;;
66270;SDS011;53063;39.614;8.814;2024-03-02T08:46:48;9.07;;;0.98;;
66270;SDS011;53063;39.614;8.814;2024-03-02T08:49:14;5.93;;;0.88;;
66270;SDS011;53063;39.614;8.814;2024-03-02T08:51:40;3.75;;;1.25;;
66270;SDS011;53063;39.614;8.814;2024-03-02T08:54:06;5.82;;;1.02;;
66270;SDS011;53063;39.614;8.814;2024-03-02T08:56:32;5.32;;;0.85;;
66270;SDS011;53063;39.614;8.814;2024-03-02T08:58:58;9.02;;;1.27;;
66270;SDS011;53063;39.614;8.814;2024-03-02T09:01:24;2.25;;;0.55;;
66270;SDS011;53063;39.614;8.814;2024-03-02T09:03:50;4.07;;;0.73;;
66270;SDS011;53063;39.614;8.814;2024-03-02T09:06:16;4.95;;;0.40;;
66270;SDS011;53063;39.614;8.814;2024-03-02T09:08:42;1.70;;;0.80;;
66270;SDS011;53063;39.614;8.814;2024-03-02T09:11:09;3.78;;;0.80;;
66270;SDS011;53063;39.614;8.814;2024-03-02T09:13:38;5.90;;;0.93;;
66270;SDS011;53063;39.614;8.814;2024-03-02T09:16:04;2.10;;;0.70;;
66270;SDS011;53063;39.614;8.814;2024-03-02T09:18:31;4.40;;;0.82;;
66270;SDS011;53063;39.614;8.814;2024-03-02T09:20:57;3.80;;;0.82;;
66270;SDS011;53063;39.614;8.814;2024-03-02T09:23:22;7.57;;;1.17;;
66270;SDS011;53063;39.614;8.814;2024-03-02T09:25:48;10.45;;;1.75;;
66270;SDS011;53063;39.614;8.814;2024-03-02T09:28:18;2.70;;;0.75;;
66270;SDS011;53063;39.614;8.814;2024-03-02T09:30:44;4.32;;;0.70;;
66270;SDS011;53063;39.614;8.814;2024-03-02T09:33:09;8.10;;;0.98;;
66270;SDS011;53063;39.614;8.814;2024-03-02T09:35:35;5.72;;;1.00;;
66270;SDS011;53063;39.614;8.814;2024-03-02T09:38:01;3.00;;;1.27;;
66270;SDS011;53063;39.614;8.814;2024-03-02T09:40:28;1.75;;;0.70;;
66270;SDS011;53063;39.614;8.814;2024-03-02T09:42:54;4.35;;;0.77;;
66270;SDS011;53063;39.614;8.814;2024-03-02T09:45:22;8.40;;;0.90;;
66270;SDS011;53063;39.614;8.814;2024-03-02T09:47:49;3.22;;;0.63;;
66270;SDS011;53063;39.614;8.814;2024-03-02T09:50:15;3.78;;;0.93;;
66270;SDS011;53063;39.614;8.814;2024-03-02T09:52:42;2.95;;;1.10;;
66270;SDS011;53063;39.614;8.814;2024-03-02T09:55:09;6.18;;;0.95;;
66270;SDS011;53063;39.614;8.814;2024-03-02T09:57:35;4.63;;;1.23;;
66270;SDS011;53063;39.614;8.814;2024-03-02T10:00:00;6.20;;;0.65;;
66270;SDS011;53063;39.614;8.814;2024-03-02T10:02:30;1.92;;;0.68;;
66270;SDS011;53063;39.614;8.814;2024-03-02T10:04:56;8.93;;;1.63;;
66270;SDS011;53063;39.614;8.814;2024-03-02T10:07:22;16.38;;;7.50;;
66270;SDS011;53063;39.614;8.814;2024-03-02T10:09:48;5.13;;;2.28;;
66270;SDS011;53063;39.614;8.814;2024-03-02T10:12:15;4.40;;;1.60;;
66270;SDS011;53063;39.614;8.814;2024-03-02T10:14:42;6.00;;;1.15;;
66270;SDS011;53063;39.614;8.814;2024-03-02T10:17:09;4.35;;;1.42;;
66270;SDS011;53063;39.614;8.814;2024-03-02T10:19:39;8.00;;;7.20;;
66270;SDS011;53063;39.614;8.814;2024-03-02T10:22:06;4.18;;;2.90;;
66270;SDS011;53063;39.614;8.814;2024-03-02T10:24:36;8.10;;;1.70;;
66270;SDS011;53063;39.614;8.814;2024-03-02T10:27:19;2.72;;;1.27;;
66270;SDS011;53063;39.614;8.814;2024-03-02T10:29:48;2.88;;;1.20;;
66270;SDS011;53063;39.614;8.814;2024-03-02T10:32:15;6.45;;;1.80;;
66270;SDS011;53063;39.614;8.814;2024-03-02T10:34:42;6.13;;;1.20;;
66270;SDS011;53063;39.614;8.814;2024-03-02T10:37:10;2.60;;;0.88;;
66270;SDS011;53063;39.614;8.814;2024-03-02T10:39:37;5.53;;;0.85;;
66270;SDS011;53063;39.614;8.814;2024-03-02T10:42:07;3.80;;;0.80;;
66270;SDS011;53063;39.614;8.814;2024-03-02T10:44:33;4.25;;;0.60;;
66270;SDS011;53063;39.614;8.814;2024-03-02T10:47:00;7.88;;;0.75;;
66270;SDS011;53063;39.614;8.814;2024-03-02T10:49:31;4.80;;;0.70;;
66270;SDS011;53063;39.614;8.814;2024-03-02T10:52:00;3.80;;;0.75;;
66270;SDS011;53063;39.614;8.814;2024-03-02T10:54:26;3.30;;;0.70;;
66270;SDS011;53063;39.614;8.814;2024-03-02T10:56:55;3.17;;;1.08;;
66270;SDS011;53063;39.614;8.814;2024-03-02T11:02:01;1.95;;;0.70;;
66270;SDS011;53063;39.614;8.814;2024-03-02T11:04:29;3.10;;;0.65;;
66270;SDS011;53063;39.614;8.814;2024-03-02T11:07:05;5.40;;;1.23;;
66270;SDS011;53063;39.614;8.814;2024-03-02T11:09:33;2.75;;;0.82;;
66270;SDS011;53063;39.614;8.814;2024-03-02T11:14:37;3.03;;;1.25;;
66270;SDS011;53063;39.614;8.814;2024-03-02T11:17:08;5.50;;;1.00;;
66270;SDS011;53063;39.614;8.814;2024-03-02T11:19:36;3.78;;;1.00;;
66270;SDS011;53063;39.614;8.814;2024-03-02T11:22:04;7.63;;;1.73;;
66270;SDS011;53063;39.614;8.814;2024-03-02T11:24:31;2.58;;;0.70;;
66270;SDS011;53063;39.614;8.814;2024-03-02T11:26:58;5.70;;;1.27;;
66270;SDS011;53063;39.614;8.814;2024-03-02T11:32:12;8.45;;;1.48;;
66270;SDS011;53063;39.614;8.814;2024-03-02T11:34:51;3.75;;;0.63;;
66270;SDS011;53063;39.614;8.814;2024-03-02T11:37:18;3.53;;;0.85;;
66270;SDS011;53063;39.614;8.814;2024-03-02T11:39:51;5.05;;;1.00;;
66270;SDS011;53063;39.614;8.814;2024-03-02T11:42:16;7.50;;;0.90;;
66270;SDS011;53063;39.614;8.814;2024-03-02T11:44:45;3.67;;;0.80;;
66270;SDS011;53063;39.614;8.814;2024-03-02T11:47:13;22.80;;;2.00;;
66270;SDS011;53063;39.614;8.814;2024-03-02T11:49:48;6.25;;;1.17;;
66270;SDS011;53063;39.614;8.814;2024-03-02T11:52:16;4.50;;;2.30;;
66270;SDS011;53063;39.614;8.814;2024-03-02T11:54:45;5.82;;;0.90;;
66270;SDS011;53063;39.614;8.814;2024-03-02T11:57:12;5.38;;;1.08;;
66270;SDS011;53063;39.614;8.814;2024-03-02T11:59:42;4.05;;;1.00;;
66270;SDS011;53063;39.614;8.814;2024-03-02T12:02:15;4.05;;;0.80;;
66270;SDS011;53063;39.614;8.814;2024-03-02T12:04:43;2.38;;;0.90;;
66270;SDS011;53063;39.614;8.814;2024-03-02T12:07:10;5.38;;;1.83;;
66270;SDS011;53063;39.614;8.814;2024-03-02T12:09:37;5.82;;;1.83;;
66270;SDS011;53063;39.614;8.814;2024-03-02T12:12:07;4.85;;;2.88;;
66270;SDS011;53063;39.614;8.814;2024-03-02T12:14:35;2.53;;;0.60;;
66270;SDS011;53063;39.614;8.814;2024-03-02T12:17:02;4.22;;;0.88;;
66270;SDS011;53063;39.614;8.814;2024-03-02T12:19:29;2.72;;;1.05;;
66270;SDS011;53063;39.614;8.814;2024-03-02T12:21:56;5.18;;;0.95;;
66270;SDS011;53063;39.614;8.814;2024-03-02T12:24:24;4.28;;;2.70;;
66270;SDS011;53063;39.614;8.814;2024-03-02T12:26:52;2.15;;;0.80;;
66270;SDS011;53063;39.614;8.814;2024-03-02T12:29:19;6.05;;;3.42;;
66270;SDS011;53063;39.614;8.814;2024-03-02T12:31:47;3.03;;;1.63;;
66270;SDS011;53063;39.614;8.814;2024-03-02T12:34:20;3.50;;;0.90;;
66270;SDS011;53063;39.614;8.814;2024-03-02T12:36:47;4.32;;;1.00;;
66270;SDS011;53063;39.614;8.814;2024-03-02T12:39:17;3.45;;;1.20;;
66270;SDS011;53063;39.614;8.814;2024-03-02T12:41:46;2.60;;;0.88;;
66270;SDS011;53063;39.614;8.814;2024-03-02T12:44:12;7.18;;;1.80;;
66270;SDS011;53063;39.614;8.814;2024-03-02T12:46:38;5.75;;;1.75;;
66270;SDS011;53063;39.614;8.814;2024-03-02T12:49:05;4.70;;;1.20;;
66270;SDS011;53063;39.614;8.814;2024-03-02T12:51:36;9.27;;;2.83;;
66270;SDS011;53063;39.614;8.814;2024-03-02T12:54:03;6.55;;;2.13;;
66270;SDS011;53063;39.614;8.814;2024-03-02T12:56:30;4.40;;;3.20;;
66270;SDS011;53063;39.614;8.814;2024-03-02T12:58:56;8.88;;;3.75;;
66270;SDS011;53063;39.614;8.814;2024-03-02T13:01:24;6.10;;;3.80;;
66270;SDS011;53063;39.614;8.814;2024-03-02T13:03:50;11.90;;;5.05;;
66270;SDS011;53063;39.614;8.814;2024-03-02T13:06:18;5.05;;;2.08;;
66270;SDS011;53063;39.614;8.814;2024-03-02T13:08:45;4.45;;;1.70;;
66270;SDS011;53063;39.614;8.814;2024-03-02T13:11:12;5.82;;;2.45;;
66270;SDS011;53063;39.614;8.814;2024-03-02T13:13:38;3.75;;;1.70;;
66270;SDS011;53063;39.614;8.814;2024-03-02T13:16:08;6.47;;;2.70;;
66270;SDS011;53063;39.614;8.814;2024-03-02T13:18:39;12.88;;;7.32;;
66270;SDS011;53063;39.614;8.814;2024-03-02T13:21:08;9.85;;;4.43;;
66270;SDS011;53063;39.614;8.814;2024-03-02T13:23:34;8.82;;;3.78;;
66270;SDS011;53063;39.614;8.814;2024-03-02T13:26:00;4.78;;;2.03;;
66270;SDS011;53063;39.614;8.814;2024-03-02T13:28:26;4.95;;;0.70;;
66270;SDS011;53063;39.614;8.814;2024-03-02T13:30:52;5.07;;;1.90;;
66270;SDS011;53063;39.614;8.814;2024-03-02T13:33:18;6.57;;;2.42;;
66270;SDS011;53063;39.614;8.814;2024-03-02T13:35:51;3.00;;;1.85;;
66270;SDS011;53063;39.614;8.814;2024-03-02T13:38:18;5.85;;;3.85;;
66270;SDS011;53063;39.614;8.814;2024-03-02T13:40:44;5.07;;;2.08;;
66270;SDS011;53063;39.614;8.814;2024-03-02T13:43:11;4.90;;;2.33;;
66270;SDS011;53063;39.614;8.814;2024-03-02T13:45:38;5.43;;;1.45;;
66270;SDS011;53063;39.614;8.814;2024-03-02T13:48:04;2.67;;;0.80;;
66270;SDS011;53063;39.614;8.814;2024-03-02T13:50:30;2.25;;;0.50;;
66270;SDS011;53063;39.614;8.814;2024-03-02T13:52:57;5.10;;;1.95;;
66270;SDS011;53063;39.614;8.814;2024-03-02T13:55:24;3.63;;;1.45;;
66270;SDS011;53063;39.614;8.814;2024-03-02T13:57:49;3.22;;;1.10;;
66270;SDS011;53063;39.614;8.814;2024-03-02T14:00:16;0.77;;;0.52;;
66270;SDS011;53063;39.614;8.814;2024-03-02T14:02:43;2.38;;;0.57;;
66270;SDS011;53063;39.614;8.814;2024-03-02T14:05:09;2.55;;;0.55;;
66270;SDS011;53063;39.614;8.814;2024-03-02T14:07:40;3.72;;;0.70;;
66270;SDS011;53063;39.614;8.814;2024-03-02T14:10:06;4.38;;;1.20;;
66270;SDS011;53063;39.614;8.814;2024-03-02T14:12:33;4.55;;;1.42;;
66270;SDS011;53063;39.614;8.814;2024-03-02T14:14:59;4.57;;;1.20;;
66270;SDS011;53063;39.614;8.814;2024-03-02T14:17:27;3.25;;;1.30;;
66270;SDS011;53063;39.614;8.814;2024-03-02T14:19:53;4.60;;;1.00;;
66270;SDS011;53063;39.614;8.814;2024-03-02T14:22:19;3.15;;;0.85;;
66270;SDS011;53063;39.614;8.814;2024-03-02T14:24:45;3.95;;;0.68;;
66270;SDS011;53063;39.614;8.814;2024-03-02T14:27:13;4.82;;;0.63;;
66270;SDS011;53063;39.614;8.814;2024-03-02T14:29:39;1.45;;;0.60;;
66270;SDS011;53063;39.614;8.814;2024-03-02T14:32:06;5.60;;;2.28;;
66270;SDS011;53063;39.614;8.814;2024-03-02T14:34:32;3.20;;;1.95;;
66270;SDS011;53063;39.614;8.814;2024-03-02T14:36:59;3.70;;;1.48;;
66270;SDS011;53063;39.614;8.814;2024-03-02T14:39:28;8.50;;;1.95;;
66270;SDS011;53063;39.614;8.814;2024-03-02T14:41:54;1.75;;;0.60;;
66270;SDS011;53063;39.614;8.814;2024-03-02T14:44:21;10.75;;;1.40;;
66270;SDS011;53063;39.614;8.814;2024-03-02T14:46:47;2.30;;;1.30;;
66270;SDS011;53063;39.614;8.814;2024-03-02T14:49:14;3.85;;;1.00;;
66270;SDS011;53063;39.614;8.814;2024-03-02T14:51:40;8.65;;;3.17;;